createdAt,value
2023-01-19T00:01:39.621Z,15.50
2023-01-19T00:04:07.639Z,16.27
2023-01-19T00:06:37.000Z,16.30
2023-01-19T00:09:05.056Z,15.88
2023-01-19T00:11:33.046Z,17.20
2023-01-19T00:14:01.019Z,15.35
2023-01-19T00:16:29.169Z,16.17
2023-01-19T00:18:57.184Z,15.60
2023-01-19T00:21:25.319Z,15.50
2023-01-19T00:23:54.757Z,14.85
2023-01-19T00:26:23.093Z,16.33
2023-01-19T00:28:52.971Z,13.82
2023-01-19T00:31:21.622Z,15.55
2023-01-19T00:33:52.535Z,14.27
2023-01-19T00:36:20.938Z,16.48
2023-01-19T00:38:48.923Z,16.42
2023-01-19T00:41:18.623Z,18.17
2023-01-19T00:43:45.665Z,17.15
2023-01-19T00:46:13.719Z,18.02
2023-01-19T00:48:41.758Z,18.33
2023-01-19T00:51:09.737Z,17.02
2023-01-19T00:53:37.727Z,15.93
2023-01-19T00:56:06.426Z,15.30
2023-01-19T00:58:35.761Z,15.95
2023-01-19T01:01:04.843Z,16.85
2023-01-19T01:03:33.376Z,17.08
2023-01-19T01:06:01.315Z,14.65
2023-01-19T01:08:29.806Z,15.00
2023-01-19T01:10:58.155Z,15.25
2023-01-19T01:13:27.874Z,14.85
2023-01-19T01:15:57.936Z,15.00
2023-01-19T01:18:26.249Z,15.30
2023-01-19T01:20:56.206Z,15.82
2023-01-19T01:23:24.356Z,15.63
2023-01-19T01:25:52.336Z,15.60
2023-01-19T01:28:20.346Z,15.20
2023-01-19T01:30:48.366Z,17.02
2023-01-19T01:33:41.394Z,14.68
2023-01-19T01:36:06.925Z,15.20
2023-01-19T01:38:34.887Z,15.05
2023-01-19T01:41:02.909Z,15.55
2023-01-19T01:43:44.777Z,15.50
2023-01-19T01:46:15.375Z,15.80
2023-01-19T01:48:47.479Z,15.63
2023-01-19T01:51:25.086Z,16.00
2023-01-19T01:53:57.555Z,16.20
2023-01-19T01:56:28.242Z,15.27
2023-01-19T01:58:56.288Z,15.18
2023-01-19T02:01:41.964Z,17.73
2023-01-19T02:04:11.715Z,16.63
2023-01-19T02:06:57.524Z,17.52
2023-01-19T02:09:44.197Z,14.27
2023-01-19T02:12:30.242Z,16.27
2023-01-19T02:14:58.225Z,17.13
2023-01-19T02:17:26.349Z,16.33
2023-01-19T02:19:55.691Z,16.17
2023-01-19T02:22:27.948Z,17.92
2023-01-19T02:24:58.876Z,16.40
2023-01-19T02:27:27.067Z,17.02
2023-01-19T02:29:55.084Z,15.65
2023-01-19T02:32:23.370Z,16.02
2023-01-19T02:34:51.940Z,16.75
2023-01-19T02:37:20.492Z,16.42
2023-01-19T02:39:51.957Z,17.40
2023-01-19T02:42:24.534Z,17.08
2023-01-19T02:44:54.406Z,15.15
2023-01-19T02:47:22.951Z,17.73
2023-01-19T02:49:57.790Z,15.48
2023-01-19T02:52:26.264Z,16.23
2023-01-19T02:55:02.510Z,16.73
2023-01-19T02:57:39.195Z,15.48
2023-01-19T03:00:18.712Z,16.15
2023-01-19T03:02:55.888Z,15.30
2023-01-19T03:05:36.039Z,16.80
2023-01-19T03:08:09.371Z,17.15
2023-01-19T03:10:44.213Z,18.17
2023-01-19T03:13:16.158Z,16.45
2023-01-19T03:18:14.720Z,16.73
2023-01-19T03:20:43.101Z,19.10
2023-01-19T03:23:12.721Z,19.17
2023-01-19T03:25:44.070Z,18.83
2023-01-19T03:28:15.363Z,18.17
2023-01-19T03:30:46.735Z,18.40
2023-01-19T03:33:17.559Z,19.80
2023-01-19T03:35:48.843Z,18.98
2023-01-19T03:38:18.349Z,20.77
2023-01-19T03:40:47.464Z,19.08
2023-01-19T03:43:18.335Z,19.42
2023-01-19T03:45:46.783Z,19.77
2023-01-19T03:48:14.915Z,21.23
2023-01-19T03:50:42.917Z,20.08
2023-01-19T03:53:12.772Z,21.35
2023-01-19T03:55:42.233Z,22.02
2023-01-19T03:58:10.741Z,21.27
2023-01-19T04:00:43.438Z,21.30
2023-01-19T04:03:14.510Z,21.00
2023-01-19T04:05:42.817Z,21.10
2023-01-19T04:08:11.541Z,19.83
2023-01-19T04:10:39.739Z,21.17
2023-01-19T04:13:07.753Z,20.88
2023-01-19T04:15:36.057Z,19.50
2023-01-19T04:18:07.084Z,20.65
2023-01-19T04:20:35.207Z,22.80
2023-01-19T04:23:03.852Z,21.08
2023-01-19T04:25:32.121Z,20.02
2023-01-19T04:28:00.304Z,21.10
2023-01-19T04:30:29.065Z,21.83
2023-01-19T04:32:57.101Z,20.92
2023-01-19T04:35:26.435Z,20.20
2023-01-19T04:37:54.463Z,20.95
2023-01-19T04:40:22.476Z,21.40
2023-01-19T04:42:50.975Z,20.80
2023-01-19T04:45:18.980Z,20.83
2023-01-19T04:47:46.990Z,21.58
2023-01-19T04:50:15.184Z,20.92
2023-01-19T04:52:44.472Z,22.30
2023-01-19T04:55:12.799Z,21.10
2023-01-19T04:57:40.770Z,22.75
2023-01-19T05:00:10.416Z,21.60
2023-01-19T05:02:38.515Z,22.10
2023-01-19T05:05:06.826Z,21.55
2023-01-19T05:07:35.269Z,21.27
2023-01-19T05:10:05.135Z,20.52
2023-01-19T05:12:33.154Z,22.25
2023-01-19T05:15:01.542Z,20.15
2023-01-19T05:17:30.229Z,21.50
2023-01-19T05:19:58.288Z,23.08
2023-01-19T05:22:26.322Z,22.98
2023-01-19T05:24:54.415Z,22.73
2023-01-19T05:27:23.815Z,21.33
2023-01-19T05:29:52.059Z,21.65
2023-01-19T05:32:20.084Z,20.67
2023-01-19T05:34:48.173Z,21.58
2023-01-19T05:37:16.467Z,21.88
2023-01-19T05:39:44.461Z,21.10
2023-01-19T05:42:12.670Z,20.98
2023-01-19T05:44:42.137Z,20.90
2023-01-19T05:47:10.103Z,22.27
2023-01-19T05:49:38.181Z,20.88
2023-01-19T05:52:06.185Z,23.38
2023-01-19T05:54:34.252Z,22.15
2023-01-19T05:57:03.015Z,20.63
2023-01-19T05:59:30.999Z,21.98
2023-01-19T06:02:01.093Z,22.83
2023-01-19T06:04:29.261Z,26.35
2023-01-19T06:06:57.279Z,24.40
2023-01-19T06:09:25.527Z,28.77
2023-01-19T06:11:56.502Z,24.77
2023-01-19T06:14:25.130Z,24.15
2023-01-19T06:16:53.496Z,24.38
2023-01-19T06:19:23.074Z,22.17
2023-01-19T06:21:52.600Z,22.45
2023-01-19T06:24:20.686Z,22.60
2023-01-19T06:26:48.684Z,22.60
2023-01-19T06:29:17.180Z,22.10
2023-01-19T06:31:45.252Z,21.80
2023-01-19T06:34:13.295Z,19.25
2023-01-19T06:36:42.752Z,19.08
2023-01-19T06:39:11.077Z,18.27
2023-01-19T06:41:40.017Z,14.82
2023-01-19T06:44:08.161Z,16.92
2023-01-19T06:46:36.258Z,17.05
2023-01-19T06:49:04.352Z,18.80
2023-01-19T06:51:32.314Z,17.55
2023-01-19T06:54:01.888Z,17.63
2023-01-19T06:56:30.201Z,16.98
2023-01-19T06:58:58.143Z,18.73
2023-01-19T07:01:26.881Z,18.88
2023-01-19T07:03:55.016Z,18.42
2023-01-19T07:06:23.008Z,18.38
2023-01-19T07:08:51.044Z,18.10
2023-01-19T07:11:26.290Z,18.33
2023-01-19T07:13:58.749Z,16.23
2023-01-19T07:16:26.776Z,16.92
2023-01-19T07:18:54.848Z,17.15
2023-01-19T07:21:22.989Z,17.35
2023-01-19T07:23:51.485Z,17.10
2023-01-19T07:26:21.549Z,17.75
2023-01-19T07:28:50.182Z,17.38
2023-01-19T07:31:19.019Z,17.95
2023-01-19T07:33:47.931Z,16.27
2023-01-19T07:36:16.042Z,15.90
2023-01-19T07:38:44.196Z,16.13
2023-01-19T07:41:12.381Z,16.45
2023-01-19T07:43:41.980Z,16.95
2023-01-19T07:46:10.504Z,17.65
2023-01-19T07:48:38.514Z,16.00
2023-01-19T07:54:59.232Z,15.65
2023-01-19T07:57:46.734Z,14.98
2023-01-19T08:00:35.755Z,13.70
2023-01-19T08:03:05.290Z,14.43
2023-01-19T08:05:36.273Z,14.02
2023-01-19T08:08:05.616Z,13.88
2023-01-19T08:10:34.697Z,14.07
2023-01-19T08:13:03.055Z,12.07
2023-01-19T08:15:32.316Z,13.20
2023-01-19T08:18:05.879Z,12.52
2023-01-19T08:20:34.216Z,12.00
2023-01-19T08:23:04.196Z,11.13
2023-01-19T08:31:34.829Z,11.85
2023-01-19T08:34:04.493Z,11.45
2023-01-19T08:36:34.636Z,10.32
2023-01-19T08:39:02.712Z,10.75
2023-01-19T08:41:30.697Z,10.38
2023-01-19T08:43:58.965Z,11.25
2023-01-19T08:46:27.346Z,9.63
2023-01-19T08:48:57.109Z,11.15
2023-01-19T08:51:26.972Z,10.10
2023-01-19T08:53:57.054Z,9.35
2023-01-19T08:56:25.359Z,9.13
2023-01-19T08:59:07.594Z,9.98
2023-01-19T09:01:37.049Z,9.20
2023-01-19T09:04:05.565Z,9.80
2023-01-19T09:06:35.130Z,9.20
2023-01-19T09:09:05.966Z,9.05
2023-01-19T09:11:35.003Z,9.18
2023-01-19T09:14:03.496Z,9.52
2023-01-19T09:16:31.981Z,9.00
2023-01-19T09:19:00.033Z,8.05
2023-01-19T09:21:28.910Z,8.07
2023-01-19T09:23:58.430Z,8.68
2023-01-19T09:26:27.075Z,8.85
2023-01-19T09:28:55.077Z,10.18
2023-01-19T09:31:23.710Z,8.18
2023-01-19T09:33:52.025Z,10.02
2023-01-19T09:36:20.019Z,8.50
2023-01-19T09:38:48.126Z,9.85
2023-01-19T09:41:21.851Z,8.65
2023-01-19T09:43:53.418Z,8.77
2023-01-19T09:46:24.479Z,8.43
2023-01-19T09:48:56.790Z,9.05
2023-01-19T09:51:27.927Z,8.20
2023-01-19T09:54:03.545Z,8.13
2023-01-19T09:56:33.224Z,8.10
2023-01-19T09:59:02.212Z,8.70
2023-01-19T10:01:37.598Z,7.97
2023-01-19T10:04:27.647Z,9.65
2023-01-19T10:07:01.028Z,9.25
2023-01-19T10:09:33.624Z,8.80
2023-01-19T10:12:09.610Z,8.30
2023-01-19T10:14:43.093Z,8.40
2023-01-19T10:17:20.195Z,8.43
2023-01-19T10:19:53.460Z,8.80
2023-01-19T10:22:23.153Z,7.80
2023-01-19T10:24:53.869Z,9.00
2023-01-19T10:27:25.728Z,8.38
2023-01-19T10:29:53.836Z,8.23
2023-01-19T10:32:24.487Z,9.57
2023-01-19T10:34:54.666Z,8.82
2023-01-19T10:37:30.476Z,7.80
2023-01-19T10:40:02.070Z,7.75
2023-01-19T10:42:31.798Z,9.27
2023-01-19T10:45:00.531Z,7.57
2023-01-19T10:47:33.683Z,9.13
2023-01-19T10:50:08.582Z,8.18
2023-01-19T10:52:39.899Z,9.02
2023-01-19T10:55:09.778Z,8.23
2023-01-19T10:57:43.530Z,8.68
2023-01-19T11:00:31.767Z,8.40
2023-01-19T11:03:00.580Z,8.50
2023-01-19T11:05:31.055Z,8.13
2023-01-19T11:07:59.658Z,8.18
2023-01-19T11:10:29.664Z,7.82
2023-01-19T11:13:02.502Z,8.65
2023-01-19T11:15:35.989Z,7.57
2023-01-19T11:20:43.993Z,9.05
2023-01-19T11:23:22.205Z,8.32
2023-01-19T11:25:52.570Z,7.82
2023-01-19T11:28:27.543Z,8.45
2023-01-19T11:30:58.331Z,8.60
2023-01-19T11:33:28.578Z,8.18
2023-01-19T11:36:05.346Z,8.45
2023-01-19T11:38:33.745Z,8.45
2023-01-19T11:41:04.252Z,7.88
2023-01-19T11:43:48.352Z,8.65
2023-01-19T11:46:17.564Z,6.97
2023-01-19T11:48:49.987Z,8.07
2023-01-19T11:51:20.700Z,8.15
2023-01-19T11:53:54.556Z,7.80
2023-01-19T11:56:25.038Z,7.45
2023-01-19T11:58:54.840Z,7.68
2023-01-19T12:01:29.919Z,7.63
2023-01-19T12:04:00.312Z,7.88
2023-01-19T12:06:32.569Z,8.05
2023-01-19T12:11:33.890Z,7.95
2023-01-19T12:14:04.372Z,7.82
2023-01-19T12:16:34.026Z,7.70
2023-01-19T12:19:05.615Z,7.05
2023-01-19T12:21:33.668Z,8.00
2023-01-19T12:24:08.544Z,7.75
2023-01-19T12:26:38.451Z,7.47
2023-01-19T12:29:13.186Z,6.90
2023-01-19T12:31:43.739Z,7.45
2023-01-19T12:34:38.749Z,7.07
2023-01-19T12:37:08.490Z,7.47
2023-01-19T12:39:49.419Z,7.80
2023-01-19T12:42:21.268Z,7.40
2023-01-19T12:44:54.720Z,8.13
2023-01-19T12:47:27.348Z,7.15
2023-01-19T12:49:59.672Z,8.15
2023-01-19T12:52:34.583Z,8.25
2023-01-19T12:55:08.079Z,9.48
2023-01-19T12:57:39.240Z,7.57
2023-01-19T13:00:36.712Z,7.93
2023-01-19T13:03:35.171Z,8.52
2023-01-19T13:06:03.677Z,7.32
2023-01-19T13:08:57.497Z,8.25
2023-01-19T13:11:30.316Z,7.80
2023-01-19T13:14:36.126Z,7.78
2023-01-19T13:17:24.130Z,7.28
2023-01-19T13:19:56.990Z,8.68
2023-01-19T13:22:50.645Z,7.90
2023-01-19T13:25:29.107Z,7.57
2023-01-19T13:27:57.475Z,8.55
2023-01-19T13:30:28.319Z,7.65
2023-01-19T13:33:06.532Z,7.53
2023-01-19T13:35:57.325Z,7.50
2023-01-19T13:38:28.602Z,8.35
2023-01-19T13:41:06.554Z,7.60
2023-01-19T13:43:38.261Z,8.40
2023-01-19T13:46:09.542Z,7.55
2023-01-19T13:48:39.371Z,7.70
2023-01-19T13:51:08.915Z,6.55
2023-01-19T13:53:37.364Z,7.60
2023-01-19T13:56:25.634Z,6.95
2023-01-19T13:59:12.004Z,8.68
2023-01-19T14:01:45.001Z,8.48
2023-01-19T14:04:34.318Z,7.75
2023-01-19T14:07:03.633Z,8.20
2023-01-19T14:09:33.922Z,8.45
2023-01-19T14:12:14.586Z,7.18
2023-01-19T14:14:43.488Z,7.18
2023-01-19T14:17:22.839Z,7.68
2023-01-19T14:19:53.910Z,7.05
2023-01-19T14:22:22.234Z,6.53
2023-01-19T14:24:50.242Z,7.30
2023-01-19T14:27:21.881Z,7.75
2023-01-19T14:29:53.744Z,7.65
2023-01-19T14:32:23.734Z,8.48
2023-01-19T14:34:54.717Z,8.13
2023-01-19T14:37:26.036Z,7.15
2023-01-19T14:39:58.207Z,6.95
2023-01-19T14:42:30.520Z,8.25
2023-01-19T14:45:01.473Z,8.40
2023-01-19T14:47:38.106Z,7.82
2023-01-19T14:50:26.098Z,7.50
2023-01-19T14:52:57.389Z,7.38
2023-01-19T14:55:30.421Z,6.53
2023-01-19T14:57:59.452Z,7.47
2023-01-19T15:00:31.085Z,7.95
2023-01-19T15:03:02.615Z,8.27
2023-01-19T15:05:36.371Z,7.57
2023-01-19T15:08:07.375Z,9.05
2023-01-19T15:10:36.552Z,8.40
2023-01-19T15:13:06.362Z,9.45
2023-01-19T15:15:35.834Z,9.25
2023-01-19T15:18:05.260Z,9.50
2023-01-19T15:20:34.662Z,9.45
2023-01-19T15:23:06.964Z,10.20
2023-01-19T15:25:36.199Z,9.65
2023-01-19T15:28:11.542Z,10.45
2023-01-19T15:30:40.112Z,10.30
2023-01-19T15:33:11.787Z,11.18
2023-01-19T15:35:41.703Z,11.02
2023-01-19T15:38:10.079Z,11.35
2023-01-19T15:40:38.902Z,10.93
2023-01-19T15:43:07.183Z,11.75
2023-01-19T15:45:37.224Z,11.13
2023-01-19T15:48:06.856Z,12.02
2023-01-19T15:50:37.780Z,12.43
2023-01-19T15:53:07.649Z,12.38
2023-01-19T15:55:38.570Z,11.40
2023-01-19T15:58:07.320Z,11.60
2023-01-19T16:00:39.113Z,14.90
2023-01-19T16:03:08.829Z,11.57
2023-01-19T16:05:42.902Z,12.77
2023-01-19T16:08:31.888Z,12.63
2023-01-19T16:11:05.680Z,12.63
2023-01-19T16:13:34.186Z,12.60
2023-01-19T16:16:03.844Z,12.50
2023-01-19T16:18:32.783Z,11.20
2023-01-19T16:21:01.622Z,11.98
2023-01-19T16:23:32.444Z,12.40
2023-01-19T16:26:04.905Z,11.55
2023-01-19T16:28:34.443Z,13.50
2023-01-19T16:31:06.008Z,13.15
2023-01-19T16:33:34.123Z,14.18
2023-01-19T16:36:18.862Z,12.07
2023-01-19T16:38:50.518Z,12.70
2023-01-19T16:41:19.496Z,12.90
2023-01-19T16:43:52.799Z,13.63
2023-01-19T16:46:22.733Z,12.68
2023-01-19T16:48:51.816Z,11.48
2023-01-19T16:51:20.597Z,12.30
2023-01-19T16:53:51.502Z,11.68
2023-01-19T16:56:20.296Z,12.05
2023-01-19T16:58:48.413Z,12.02
2023-01-19T17:01:20.146Z,12.27
2023-01-19T17:03:49.208Z,12.15
2023-01-19T17:06:18.531Z,10.55
2023-01-19T17:08:46.946Z,12.43
2023-01-19T17:11:21.651Z,11.43
2023-01-19T17:13:50.561Z,11.32
2023-01-19T17:16:19.008Z,11.35
2023-01-19T17:18:47.771Z,11.45
2023-01-19T17:21:19.284Z,12.45
2023-01-19T17:23:49.294Z,12.52
2023-01-19T17:26:19.679Z,11.60
2023-01-19T17:28:48.313Z,11.68
2023-01-19T17:31:18.175Z,11.98
2023-01-19T17:33:47.476Z,12.57
2023-01-19T17:36:19.337Z,11.10
2023-01-19T17:38:48.473Z,11.55
2023-01-19T17:41:19.313Z,10.98
2023-01-19T17:43:48.111Z,11.65
2023-01-19T17:46:16.220Z,11.07
2023-01-19T17:48:46.296Z,11.18
2023-01-19T17:51:15.457Z,10.65
2023-01-19T17:53:45.252Z,10.60
2023-01-19T17:56:16.675Z,10.25
2023-01-19T17:58:46.363Z,10.77
2023-01-19T18:01:18.668Z,10.23
2023-01-19T18:03:47.447Z,10.68
2023-01-19T18:06:16.099Z,10.70
2023-01-19T18:08:46.202Z,10.77
2023-01-19T18:11:14.959Z,10.93
2023-01-19T18:13:44.893Z,10.23
2023-01-19T18:16:16.057Z,10.73
2023-01-19T18:18:45.091Z,12.23
2023-01-19T18:21:15.681Z,10.35
2023-01-19T18:23:46.010Z,10.82
2023-01-19T18:26:17.954Z,10.93
2023-01-19T18:28:46.451Z,10.40
2023-01-19T18:31:18.168Z,11.18
2023-01-19T18:33:46.526Z,10.90
2023-01-19T18:36:15.013Z,10.48
2023-01-19T18:38:43.252Z,10.88
2023-01-19T18:41:12.845Z,10.57
2023-01-19T18:43:45.060Z,9.75
2023-01-19T18:46:14.125Z,10.50
2023-01-19T18:48:43.618Z,10.30
2023-01-19T18:51:17.716Z,10.38
2023-01-19T18:53:48.627Z,10.63
2023-01-19T18:56:17.329Z,11.80
2023-01-19T18:58:45.983Z,10.80
2023-01-19T19:01:20.172Z,10.13
2023-01-19T19:03:50.545Z,10.05
2023-01-19T19:06:20.867Z,9.93
2023-01-19T19:08:50.273Z,9.98
2023-01-19T19:11:19.004Z,10.07
2023-01-19T19:13:47.262Z,10.15
2023-01-19T19:16:15.875Z,11.25
2023-01-19T19:18:44.574Z,10.30
2023-01-19T19:21:14.333Z,10.25
2023-01-19T19:23:43.157Z,10.45
2023-01-19T19:26:15.800Z,10.63
2023-01-19T19:28:45.684Z,10.05
2023-01-19T19:31:15.571Z,9.27
2023-01-19T19:33:44.445Z,10.63
2023-01-19T19:36:13.848Z,10.27
2023-01-19T19:38:44.395Z,10.43
2023-01-19T19:41:13.607Z,10.20
2023-01-19T19:43:41.823Z,9.88
2023-01-19T19:46:12.367Z,9.82
2023-01-19T19:48:41.451Z,9.93
2023-01-19T19:51:17.943Z,9.65
2023-01-19T19:53:51.320Z,10.90
2023-01-19T19:56:21.966Z,9.90
2023-01-19T19:58:51.411Z,10.55
2023-01-19T20:01:21.249Z,10.35
2023-01-19T20:03:50.216Z,10.73
2023-01-19T20:06:22.639Z,10.07
2023-01-19T20:08:53.840Z,10.05
2023-01-19T20:11:24.352Z,10.52
2023-01-19T20:13:53.109Z,11.48
2023-01-19T20:16:23.232Z,11.70
2023-01-19T20:18:55.394Z,10.82
2023-01-19T20:23:55.398Z,9.88
2023-01-19T20:26:26.499Z,11.05
2023-01-19T20:28:55.225Z,10.30
2023-01-19T20:31:29.657Z,10.38
2023-01-19T20:34:00.460Z,10.70
2023-01-19T20:36:29.958Z,10.40
2023-01-19T20:39:10.132Z,10.43
2023-01-19T20:41:45.811Z,11.10
2023-01-19T20:44:16.772Z,10.27
2023-01-19T20:46:46.453Z,10.25
2023-01-19T20:49:14.926Z,10.93
2023-01-19T20:51:45.297Z,10.15
2023-01-19T20:54:17.306Z,10.82
2023-01-19T20:56:46.551Z,12.35
2023-01-19T20:59:19.204Z,10.57
2023-01-19T21:01:50.029Z,10.98
2023-01-19T21:04:18.438Z,11.20
2023-01-19T21:06:47.303Z,11.10
2023-01-19T21:09:18.675Z,11.25
2023-01-19T21:11:47.269Z,11.73
2023-01-19T21:14:16.639Z,11.07
2023-01-19T21:16:44.910Z,11.10
2023-01-19T21:19:13.504Z,13.38
2023-01-19T21:21:41.551Z,13.77
2023-01-19T21:24:11.733Z,12.90
2023-01-19T21:26:41.920Z,13.13
2023-01-19T21:29:13.493Z,12.23
2023-01-19T21:31:41.931Z,12.93
2023-01-19T21:34:11.465Z,13.95
2023-01-19T21:36:47.413Z,13.45
2023-01-19T21:39:17.347Z,14.05
2023-01-19T21:41:47.022Z,15.82
2023-01-19T21:44:15.674Z,15.88
2023-01-19T21:46:44.223Z,15.40
2023-01-19T21:49:16.056Z,15.77
2023-01-19T21:51:47.884Z,16.08
2023-01-19T21:54:17.840Z,15.82
2023-01-19T21:56:47.647Z,15.30
2023-01-19T21:59:16.616Z,15.95
2023-01-19T22:01:46.730Z,15.93
2023-01-19T22:04:14.948Z,16.75
2023-01-19T22:06:43.924Z,16.60
2023-01-19T22:09:12.007Z,16.63
2023-01-19T22:11:40.390Z,16.20
2023-01-19T22:14:11.404Z,15.95
2023-01-19T22:16:39.424Z,16.33
2023-01-19T22:19:08.544Z,18.15
2023-01-19T22:21:36.812Z,17.27
2023-01-19T22:24:06.115Z,17.58
2023-01-19T22:26:34.969Z,17.33
2023-01-19T22:29:07.032Z,15.75
2023-01-19T22:31:36.785Z,17.23
2023-01-19T22:34:05.089Z,16.33
2023-01-19T22:36:35.235Z,16.88
2023-01-19T22:39:05.483Z,17.10
2023-01-19T22:41:38.304Z,18.63
2023-01-19T22:44:08.656Z,18.55
2023-01-19T22:46:39.060Z,18.08
2023-01-19T22:49:10.030Z,16.05
2023-01-19T22:51:40.387Z,18.05
2023-01-19T22:54:09.238Z,16.88
2023-01-19T22:56:39.033Z,18.42
2023-01-19T22:59:08.005Z,18.92
2023-01-19T23:01:38.940Z,17.85
2023-01-19T23:04:08.633Z,18.83
2023-01-19T23:06:37.816Z,17.48
2023-01-19T23:09:09.084Z,16.20
2023-01-19T23:11:39.376Z,17.53
2023-01-19T23:14:09.740Z,17.40
2023-01-19T23:16:40.167Z,17.10
2023-01-19T23:19:08.349Z,17.52
2023-01-19T23:21:37.114Z,15.95
2023-01-19T23:24:06.008Z,17.48
2023-01-19T23:26:38.207Z,17.20
2023-01-19T23:29:08.378Z,16.70
2023-01-19T23:31:38.484Z,17.80
2023-01-19T23:34:09.838Z,16.73
2023-01-19T23:36:42.019Z,18.10
2023-01-19T23:39:15.146Z,18.33
2023-01-19T23:41:43.479Z,17.88
2023-01-19T23:44:12.408Z,17.23
2023-01-19T23:46:40.788Z,17.52
2023-01-19T23:49:10.257Z,17.08
2023-01-19T23:51:38.980Z,18.08
2023-01-19T23:54:07.305Z,17.33
2023-01-19T23:56:38.413Z,17.95
2023-01-19T23:59:09.553Z,19.13
